LFBA/AGF METAR and TAF weather

Enter ICAO airport designator
Station Type Date Time Source
LFBA METAR 2020/03/28 15:00 UTC NOAA

LFBA 281500Z AUTO 33008KT 300V010 CAVOK 18/03 Q1017


Station Type Date Time Source
LFBA Decoded METAR 2020/03/28 15:00 UTC NOAA

Agen, France (LFBA) 44-11N 000-36E 60M
Mar 28, 2020 - 11:00 AM EDT / 2020.03.28 1500 UTC
Wind: from the NNW (330 degrees) at 9 MPH (8 KT) (direction variable):0
Visibility: greater than 7 mile(s):0
Temperature: 64 F (18 C)
Dew Point: 37 F (3 C)
Relative Humidity: 36%
Pressure (altimeter): 30.03 in. Hg (1017 hPa)
ob: LFBA 281500Z AUTO 33008KT 300V010 CAVOK 18/03 Q1017
cycle: 15

Station Type Date Time Source
LFBA TAF 2014/12/22 20:03 UTC NOAA

TAF
AMD TAF
AMD LFBA 222037Z 2220/2224 12007KT 0400 FG VV///
TEMPO 2220/2224 0100 PROB30
TEMPO 2222/2224 FZFG

Example: see airport list